createdAt,value
2023-05-14T00:00:02.020Z,58.93
2023-05-14T00:03:15.678Z,58.91
2023-05-14T00:06:13.994Z,58.99
2023-05-14T00:09:15.206Z,58.97
2023-05-14T00:12:30.889Z,59.14
2023-05-14T00:15:10.885Z,59.08
2023-05-14T00:18:14.895Z,59.32
2023-05-14T00:21:27.218Z,59.37
2023-05-14T00:24:39.734Z,59.75
2023-05-14T00:28:09.361Z,59.96
2023-05-14T00:31:45.182Z,59.92
2023-05-14T00:35:25.053Z,59.94
2023-05-14T00:39:01.227Z,60.03
2023-05-14T00:42:29.081Z,60.01
2023-05-14T00:45:17.560Z,60.23
2023-05-14T00:47:50.269Z,60.40
2023-05-14T00:51:13.685Z,60.58
2023-05-14T00:55:02.381Z,60.58
2023-05-14T00:59:12.124Z,60.78
2023-05-14T01:02:32.903Z,61.28
2023-05-14T01:06:46.868Z,62.07
2023-05-14T01:10:42.621Z,62.43
2023-05-14T01:14:33.883Z,62.84
2023-05-14T01:17:44.905Z,63.01
2023-05-14T01:21:17.573Z,63.23
2023-05-14T01:24:58.654Z,63.30
2023-05-14T01:28:13.657Z,63.37
2023-05-14T01:31:39.802Z,63.23
2023-05-14T01:34:53.711Z,62.80
2023-05-14T01:38:21.475Z,62.79
2023-05-14T01:41:44.173Z,62.75
2023-05-14T01:45:08.951Z,62.81
2023-05-14T01:48:34.261Z,62.56
2023-05-14T01:52:32.752Z,62.42
2023-05-14T01:55:45.740Z,62.32
2023-05-14T01:58:27.268Z,62.45
2023-05-14T02:01:26.549Z,62.40
2023-05-14T02:05:25.561Z,62.27
2023-05-14T02:09:25.206Z,62.17
2023-05-14T02:13:24.900Z,62.18
2023-05-14T02:17:14.895Z,62.27
2023-05-14T02:21:15.682Z,62.24
2023-05-14T02:25:25.402Z,62.24
2023-05-14T02:29:35.013Z,62.67
2023-05-14T02:33:45.022Z,62.76
2023-05-14T02:37:54.696Z,62.84
2023-05-14T02:41:44.253Z,63.19
2023-05-14T02:45:54.004Z,62.96
2023-05-14T02:49:56.606Z,62.77
2023-05-14T02:54:06.410Z,62.81
2023-05-14T02:58:16.186Z,62.50
2023-05-14T03:02:19.065Z,62.43
2023-05-14T03:06:29.377Z,62.62
2023-05-14T03:10:28.943Z,62.89
2023-05-14T03:14:28.868Z,62.89
2023-05-14T03:18:28.534Z,63.01
2023-05-14T03:22:28.552Z,63.06
2023-05-14T03:26:38.221Z,63.30
2023-05-14T03:30:48.419Z,63.24
2023-05-14T03:34:58.124Z,63.16
2023-05-14T03:38:40.371Z,63.51
2023-05-14T03:42:40.569Z,63.91
2023-05-14T03:46:50.398Z,63.85
2023-05-14T03:50:20.829Z,63.82
2023-05-14T03:53:26.600Z,63.79
2023-05-14T03:56:25.500Z,64.04
2023-05-14T03:59:36.077Z,64.39
2023-05-14T04:03:19.299Z,64.69
2023-05-14T04:07:29.293Z,64.50
2023-05-14T04:11:29.063Z,64.54
2023-05-14T04:15:39.199Z,64.31
2023-05-14T04:19:24.743Z,64.04
2023-05-14T04:23:24.677Z,63.80
2023-05-14T04:27:34.328Z,63.78
2023-05-14T04:31:17.182Z,63.53
2023-05-14T04:35:26.977Z,63.11
2023-05-14T04:39:09.607Z,62.71
2023-05-14T04:42:59.748Z,62.24
2023-05-14T04:46:49.406Z,61.73
2023-05-14T04:50:59.074Z,61.28
2023-05-14T04:55:01.849Z,61.02
2023-05-14T04:59:11.420Z,60.71
2023-05-14T05:03:13.992Z,60.56
2023-05-14T05:07:04.121Z,60.20
2023-05-14T05:11:04.998Z,60.07
2023-05-14T05:14:44.682Z,60.25
2023-05-14T05:18:36.904Z,60.02
2023-05-14T05:22:11.473Z,59.72
2023-05-14T05:26:11.587Z,59.36
2023-05-14T05:30:01.385Z,58.93
2023-05-14T05:33:51.382Z,58.85
2023-05-14T05:37:43.943Z,58.48
2023-05-14T05:41:13.760Z,58.01
2023-05-14T05:44:56.534Z,58.06
2023-05-14T05:48:34.783Z,58.00
2023-05-14T05:52:29.179Z,57.85
2023-05-14T05:55:51.661Z,57.49
2023-05-14T05:59:41.405Z,57.08
2023-05-14T06:03:31.317Z,56.72
2023-05-14T06:06:40.678Z,56.46
2023-05-14T06:09:33.455Z,56.62
2023-05-14T06:12:46.508Z,56.14
2023-05-14T06:15:27.462Z,55.73
2023-05-14T06:18:32.650Z,55.77
2023-05-14T06:21:33.278Z,55.40
2023-05-14T06:25:02.070Z,54.97
2023-05-14T06:28:15.408Z,54.65
2023-05-14T06:30:55.383Z,54.23
2023-05-14T06:33:58.551Z,54.12
2023-05-14T06:37:21.709Z,54.29
2023-05-14T06:41:21.586Z,53.84
2023-05-14T06:44:51.675Z,53.83
2023-05-14T06:48:33.677Z,53.59
2023-05-14T06:51:18.113Z,53.30
2023-05-14T06:54:22.127Z,52.99
2023-05-14T06:57:07.123Z,53.30
2023-05-14T07:00:11.182Z,53.21
2023-05-14T07:02:50.916Z,52.18
2023-05-14T07:05:42.973Z,51.63
2023-05-14T07:08:55.786Z,51.07
2023-05-14T07:11:33.228Z,50.75
2023-05-14T07:14:17.787Z,50.26
2023-05-14T07:16:50.884Z,49.88
2023-05-14T07:19:22.554Z,48.87
2023-05-14T07:21:55.517Z,48.74
2023-05-14T07:24:46.387Z,47.80
2023-05-14T07:27:28.806Z,47.30
2023-05-14T07:29:58.929Z,46.80
2023-05-14T07:32:32.824Z,46.32
2023-05-14T07:35:22.005Z,46.19
2023-05-14T07:38:23.769Z,45.76
2023-05-14T07:41:02.031Z,45.81
2023-05-14T07:43:34.881Z,45.10
2023-05-14T07:46:12.883Z,44.79
2023-05-14T07:48:52.703Z,44.52
2023-05-14T07:51:23.535Z,43.74
2023-05-14T07:53:52.951Z,43.70
2023-05-14T07:56:25.325Z,43.02
2023-05-14T07:58:59.017Z,43.16
2023-05-14T08:01:44.138Z,42.78
2023-05-14T08:04:26.220Z,42.56
2023-05-14T08:06:59.033Z,41.56
2023-05-14T08:09:31.291Z,41.52
2023-05-14T08:12:03.811Z,41.18
2023-05-14T08:14:34.956Z,41.60
2023-05-14T08:17:07.960Z,41.61
2023-05-14T08:19:40.396Z,40.58
2023-05-14T08:22:13.037Z,40.74
2023-05-14T08:24:43.705Z,40.54
2023-05-14T08:27:23.111Z,40.49
2023-05-14T08:29:53.968Z,39.85
2023-05-14T08:32:24.992Z,39.79
2023-05-14T08:34:54.578Z,40.22
2023-05-14T08:37:24.383Z,39.64
2023-05-14T08:39:56.053Z,39.68
2023-05-14T08:42:29.629Z,39.87
2023-05-14T08:45:03.759Z,39.85
2023-05-14T08:47:36.596Z,39.65
2023-05-14T08:50:09.110Z,39.28
2023-05-14T08:52:40.385Z,38.60
2023-05-14T08:55:14.215Z,37.69
2023-05-14T08:57:47.974Z,38.26
2023-05-14T09:00:20.756Z,38.23
2023-05-14T09:02:54.334Z,37.87
2023-05-14T09:05:26.026Z,36.60
2023-05-14T09:07:59.140Z,36.44
2023-05-14T09:10:40.803Z,37.26
2023-05-14T09:13:10.747Z,37.07
2023-05-14T09:15:41.647Z,36.30
2023-05-14T09:18:10.754Z,36.17
2023-05-14T09:20:42.127Z,36.12
2023-05-14T09:23:12.818Z,35.76
2023-05-14T09:25:45.996Z,35.90
2023-05-14T09:28:19.534Z,35.40
2023-05-14T09:30:52.596Z,35.20
2023-05-14T09:33:29.091Z,34.88
2023-05-14T09:36:02.252Z,35.31
2023-05-14T09:38:32.857Z,35.04
2023-05-14T09:41:02.083Z,34.84
2023-05-14T09:43:32.300Z,34.55
2023-05-14T09:46:01.945Z,34.54
2023-05-14T09:48:31.175Z,34.39
2023-05-14T09:51:00.137Z,34.42
2023-05-14T09:53:31.157Z,34.49
2023-05-14T09:56:02.711Z,34.83
2023-05-14T09:58:31.787Z,34.45
2023-05-14T10:01:02.263Z,34.17
2023-05-14T10:03:32.494Z,34.62
2023-05-14T10:06:07.245Z,34.22
2023-05-14T10:08:41.481Z,33.80
2023-05-14T10:11:25.828Z,33.44
2023-05-14T10:14:22.510Z,33.37
2023-05-14T10:16:53.457Z,33.06
2023-05-14T10:19:26.051Z,33.06
2023-05-14T10:22:06.063Z,33.16
2023-05-14T10:24:39.362Z,33.83
2023-05-14T10:27:10.009Z,33.42
2023-05-14T10:29:39.478Z,32.57
2023-05-14T10:32:10.917Z,31.98
2023-05-14T10:34:46.601Z,32.03
2023-05-14T10:37:18.514Z,31.83
2023-05-14T10:40:06.397Z,32.51
2023-05-14T10:42:44.455Z,32.51
2023-05-14T10:45:23.837Z,32.45
2023-05-14T10:47:52.806Z,31.51
2023-05-14T10:50:25.551Z,31.17
2023-05-14T10:52:57.964Z,31.38
2023-05-14T10:55:27.583Z,31.15
2023-05-14T10:58:01.858Z,30.78
2023-05-14T11:00:35.245Z,31.12
2023-05-14T11:03:08.433Z,31.30
2023-05-14T11:05:41.585Z,30.83
2023-05-14T11:08:13.102Z,30.41
2023-05-14T11:10:43.665Z,31.66
2023-05-14T11:13:14.890Z,32.25
2023-05-14T11:15:48.725Z,31.82
2023-05-14T11:18:32.260Z,31.19
2023-05-14T11:21:15.355Z,31.31
2023-05-14T11:23:47.849Z,31.34
2023-05-14T11:26:17.872Z,31.77
2023-05-14T11:28:47.884Z,30.87
2023-05-14T11:31:17.213Z,31.03
2023-05-14T11:33:46.490Z,30.99
2023-05-14T11:36:16.708Z,31.10
2023-05-14T11:38:49.500Z,30.77
2023-05-14T11:41:21.767Z,29.96
2023-05-14T11:43:51.145Z,30.64
2023-05-14T11:46:20.249Z,29.96
2023-05-14T11:48:49.353Z,30.10
2023-05-14T11:51:18.376Z,30.12
2023-05-14T11:53:47.658Z,30.60
2023-05-14T11:56:16.638Z,30.42
2023-05-14T11:58:49.394Z,30.01
2023-05-14T12:01:21.192Z,30.34
2023-05-14T12:03:51.268Z,30.55
2023-05-14T12:06:20.280Z,30.28
2023-05-14T12:08:49.902Z,29.77
2023-05-14T12:11:21.756Z,29.54
2023-05-14T12:13:50.745Z,30.22
2023-05-14T12:16:21.207Z,31.11
2023-05-14T12:18:50.082Z,30.63
2023-05-14T12:21:19.300Z,31.03
2023-05-14T12:23:48.660Z,31.37
2023-05-14T12:26:17.543Z,31.11
2023-05-14T12:28:48.611Z,31.07
2023-05-14T12:31:17.631Z,30.41
2023-05-14T12:33:47.920Z,30.11
2023-05-14T12:36:21.805Z,29.87
2023-05-14T12:38:57.492Z,29.67
2023-05-14T12:41:26.491Z,29.82
2023-05-14T12:43:56.791Z,29.74
2023-05-14T12:46:28.282Z,29.42
2023-05-14T12:48:57.956Z,29.80
2023-05-14T12:51:27.059Z,29.79
2023-05-14T12:53:56.040Z,29.95
2023-05-14T12:56:28.718Z,30.55
2023-05-14T12:58:57.610Z,29.96
2023-05-14T13:01:27.068Z,29.96
2023-05-14T13:03:59.928Z,30.20
2023-05-14T13:06:29.007Z,30.37
2023-05-14T13:09:00.811Z,30.17
2023-05-14T13:11:31.994Z,30.84
2023-05-14T13:14:02.161Z,30.38
2023-05-14T13:16:31.575Z,30.35
2023-05-14T13:19:00.482Z,30.55
2023-05-14T13:21:32.635Z,30.73
2023-05-14T13:24:01.770Z,31.32
2023-05-14T13:26:30.585Z,30.14
2023-05-14T13:28:59.462Z,29.94
2023-05-14T13:31:29.313Z,29.76
2023-05-14T13:33:59.700Z,29.30
2023-05-14T13:36:28.650Z,29.96
2023-05-14T13:38:57.639Z,30.50
2023-05-14T13:41:26.770Z,30.39
2023-05-14T13:43:56.001Z,30.11
2023-05-14T13:46:25.139Z,29.39
2023-05-14T13:48:53.961Z,29.50
2023-05-14T13:51:24.108Z,30.43
2023-05-14T13:56:26.825Z,30.57
2023-05-14T13:58:56.395Z,30.04
2023-05-14T14:01:26.257Z,30.08
2023-05-14T14:03:55.413Z,30.38
2023-05-14T14:06:24.093Z,31.62
2023-05-14T14:08:53.600Z,31.74
2023-05-14T14:11:22.589Z,31.27
2023-05-14T14:13:51.255Z,31.32
2023-05-14T14:16:20.184Z,31.81
2023-05-14T14:18:49.837Z,32.48
2023-05-14T14:21:21.104Z,32.68
2023-05-14T14:23:50.228Z,32.81
2023-05-14T14:26:19.402Z,32.25
2023-05-14T14:28:48.312Z,32.48
2023-05-14T14:31:17.966Z,32.76
2023-05-14T14:33:46.899Z,32.88
2023-05-14T14:36:16.292Z,33.69
2023-05-14T14:38:45.101Z,34.02
2023-05-14T14:41:13.808Z,33.67
2023-05-14T14:43:44.142Z,33.41
2023-05-14T14:46:14.359Z,33.69
2023-05-14T14:48:44.455Z,34.05
2023-05-14T14:51:13.445Z,34.44
2023-05-14T14:53:42.332Z,34.73
2023-05-14T14:56:11.739Z,35.02
2023-05-14T14:58:41.135Z,35.53
2023-05-14T15:01:10.065Z,35.25
2023-05-14T15:03:39.502Z,35.63
2023-05-14T15:06:09.785Z,35.77
2023-05-14T15:08:38.852Z,36.73
2023-05-14T15:11:08.975Z,36.53
2023-05-14T15:13:42.257Z,36.69
2023-05-14T15:16:15.237Z,36.41
2023-05-14T15:18:46.952Z,36.38
2023-05-14T15:21:16.442Z,36.49
2023-05-14T15:23:46.029Z,36.62
2023-05-14T15:26:16.580Z,36.95
2023-05-14T15:28:46.701Z,36.59
2023-05-14T15:31:16.731Z,36.64
2023-05-14T15:33:45.979Z,36.61
2023-05-14T15:36:15.208Z,36.52
2023-05-14T15:38:44.890Z,36.67
2023-05-14T15:41:20.750Z,37.51
2023-05-14T15:43:52.235Z,37.99
2023-05-14T15:46:23.693Z,38.35
2023-05-14T15:48:55.534Z,38.48
2023-05-14T15:51:28.288Z,37.73
2023-05-14T15:53:58.847Z,38.07
2023-05-14T15:56:28.134Z,38.29
2023-05-14T15:58:59.286Z,38.32
2023-05-14T16:01:31.162Z,38.48
2023-05-14T16:04:01.798Z,38.90
2023-05-14T16:06:34.250Z,39.00
2023-05-14T16:09:05.628Z,39.07
2023-05-14T16:11:36.121Z,39.13
2023-05-14T16:14:08.373Z,39.45
2023-05-14T16:16:37.728Z,39.99
2023-05-14T16:19:07.545Z,40.42
2023-05-14T16:21:39.214Z,40.43
2023-05-14T16:24:09.487Z,40.72
2023-05-14T16:26:39.588Z,40.84
2023-05-14T16:29:11.873Z,40.89
2023-05-14T16:31:41.213Z,41.21
2023-05-14T16:34:10.572Z,41.11
2023-05-14T16:36:45.850Z,41.33
2023-05-14T16:39:17.984Z,41.37
2023-05-14T16:41:47.061Z,41.54
2023-05-14T16:44:28.257Z,41.78
2023-05-14T16:46:57.964Z,42.06
2023-05-14T16:49:34.649Z,42.11
2023-05-14T16:52:03.735Z,42.27
2023-05-14T16:54:42.760Z,42.51
2023-05-14T16:57:12.661Z,42.77
2023-05-14T16:59:48.093Z,42.44
2023-05-14T17:02:31.541Z,42.58
2023-05-14T17:05:22.083Z,43.11
2023-05-14T17:07:51.921Z,43.21
2023-05-14T17:10:30.895Z,43.51
2023-05-14T17:13:01.368Z,43.50
2023-05-14T17:15:57.679Z,43.46
2023-05-14T17:18:28.341Z,43.49
2023-05-14T17:20:58.688Z,43.74
2023-05-14T17:23:39.899Z,43.91
2023-05-14T17:26:09.882Z,44.34
2023-05-14T17:28:52.875Z,45.17
2023-05-14T17:31:31.848Z,45.59
2023-05-14T17:34:13.369Z,46.06
2023-05-14T17:37:04.746Z,46.38
2023-05-14T17:41:14.037Z,46.81
2023-05-14T17:44:47.028Z,47.31
2023-05-14T17:52:34.391Z,47.67
2023-05-14T17:57:16.673Z,48.01
2023-05-14T18:01:41.369Z,48.31
2023-05-14T18:06:43.205Z,48.57
2023-05-14T18:11:05.837Z,49.12
2023-05-14T18:15:44.047Z,49.77
2023-05-14T18:19:01.169Z,50.17
2023-05-14T18:21:31.326Z,50.65
2023-05-14T18:24:04.898Z,50.94
2023-05-14T18:26:35.090Z,51.50
2023-05-14T18:29:10.253Z,51.95
2023-05-14T18:31:41.189Z,52.81
2023-05-14T18:34:25.555Z,53.42
2023-05-14T18:36:59.777Z,53.99
2023-05-14T18:39:33.474Z,54.35
2023-05-14T18:42:11.178Z,55.15
2023-05-14T18:44:45.598Z,55.89
2023-05-14T18:47:19.810Z,56.06
2023-05-14T18:49:57.615Z,56.26
2023-05-14T18:52:42.806Z,56.25
2023-05-14T18:55:20.213Z,56.10
2023-05-14T18:58:18.295Z,56.41
2023-05-14T19:01:01.286Z,56.49
2023-05-14T19:03:54.700Z,56.68
2023-05-14T19:06:25.558Z,56.83
2023-05-14T19:09:24.489Z,57.16
2023-05-14T19:11:59.176Z,57.49
2023-05-14T19:14:35.160Z,57.81
2023-05-14T19:17:34.079Z,58.34
2023-05-14T19:20:29.656Z,58.21
2023-05-14T19:23:04.983Z,58.03
2023-05-14T19:26:26.347Z,58.06
2023-05-14T19:29:26.234Z,58.39
2023-05-14T19:32:00.923Z,58.98
2023-05-14T19:34:42.544Z,59.05
2023-05-14T19:37:59.395Z,59.69
2023-05-14T19:41:23.545Z,60.27
2023-05-14T19:44:48.183Z,60.62
2023-05-14T19:47:24.851Z,61.18
2023-05-14T19:51:08.532Z,61.27
2023-05-14T19:54:16.255Z,61.30
2023-05-14T19:57:16.303Z,61.61
2023-05-14T20:00:55.812Z,61.61
2023-05-14T20:03:32.668Z,61.92
2023-05-14T20:06:14.788Z,61.99
2023-05-14T20:08:46.150Z,61.94
2023-05-14T20:11:18.522Z,62.03
2023-05-14T20:13:49.164Z,62.07
2023-05-14T20:16:21.247Z,61.92
2023-05-14T20:19:18.650Z,62.55
2023-05-14T20:21:55.182Z,63.02
2023-05-14T20:24:43.398Z,62.86
2023-05-14T20:27:19.343Z,63.11
2023-05-14T20:29:51.572Z,62.13
2023-05-14T20:32:25.376Z,62.08
2023-05-14T20:35:10.007Z,62.42
2023-05-14T20:38:15.519Z,62.30
2023-05-14T20:42:13.521Z,62.30
2023-05-14T20:45:21.857Z,62.37
2023-05-14T20:48:23.105Z,62.92
2023-05-14T20:51:26.395Z,63.07
2023-05-14T20:55:07.388Z,63.71
2023-05-14T21:02:38.951Z,64.07
2023-05-14T21:06:59.229Z,63.83
2023-05-14T21:10:38.712Z,64.24
2023-05-14T21:13:57.344Z,64.35
2023-05-14T21:17:56.738Z,64.39
2023-05-14T21:22:11.766Z,65.12
2023-05-14T21:26:03.596Z,65.13
2023-05-14T21:30:42.723Z,65.53
2023-05-14T21:34:02.761Z,65.77
2023-05-14T21:38:09.627Z,66.25
2023-05-14T21:41:14.318Z,67.11
2023-05-14T21:43:45.518Z,67.37
2023-05-14T21:46:16.455Z,67.95
2023-05-14T21:48:50.609Z,68.17
2023-05-14T21:51:21.811Z,68.37
2023-05-14T21:53:52.698Z,69.03
2023-05-14T21:56:24.297Z,69.07
2023-05-14T21:58:55.789Z,69.37
2023-05-14T22:01:35.638Z,69.48
2023-05-14T22:06:42.305Z,69.69
2023-05-14T22:09:14.153Z,69.69
2023-05-14T22:11:48.178Z,69.58
2023-05-14T22:14:16.955Z,69.79
2023-05-14T22:16:48.562Z,69.83
2023-05-14T22:19:17.442Z,70.15
2023-05-14T22:21:51.104Z,70.15
2023-05-14T22:24:22.976Z,70.28
2023-05-14T22:26:58.708Z,70.12
2023-05-14T22:29:27.338Z,70.02
2023-05-14T22:31:58.699Z,70.26
2023-05-14T22:34:27.548Z,70.33
2023-05-14T22:37:03.085Z,70.58
2023-05-14T22:39:37.513Z,70.98
2023-05-14T22:42:06.502Z,71.28
2023-05-14T22:44:41.220Z,71.43
2023-05-14T22:47:21.084Z,71.34
2023-05-14T22:49:52.943Z,71.88
2023-05-14T22:52:25.814Z,71.81
2023-05-14T22:54:59.922Z,71.89
2023-05-14T22:57:36.710Z,71.90
2023-05-14T23:00:19.330Z,71.75
2023-05-14T23:02:50.990Z,72.00
2023-05-14T23:05:25.907Z,72.21
2023-05-14T23:08:01.365Z,72.29
2023-05-14T23:10:30.125Z,72.51
2023-05-14T23:13:01.811Z,72.79
2023-05-14T23:15:42.638Z,72.82
2023-05-14T23:18:12.114Z,72.98
2023-05-14T23:20:44.030Z,72.83
2023-05-14T23:23:20.088Z,73.04
2023-05-14T23:25:50.319Z,73.26
2023-05-14T23:28:21.664Z,73.17
2023-05-14T23:30:52.912Z,73.25
2023-05-14T23:33:31.119Z,73.27
2023-05-14T23:36:02.561Z,73.34
2023-05-14T23:38:34.132Z,73.18
2023-05-14T23:41:08.560Z,73.20
2023-05-14T23:43:43.768Z,73.17
2023-05-14T23:46:14.952Z,72.98
2023-05-14T23:48:49.041Z,72.89
2023-05-14T23:51:30.940Z,73.04
2023-05-14T23:54:22.053Z,73.30
2023-05-14T23:56:55.228Z,73.38
2023-05-14T23:59:40.276Z,73.50
